.
WxDataArchive / Data Records for 2011-01-10
2011-01-09 January 2011 2011-01-11

Data Records for Monday, 10 January 2011

Time	Temp	Chill	HIndex	Humid	Dewpt	 Wind 	HiWind	WindDir	Rain 	Barom 
-----	----	-----	------	-----	-----	------	------	-------	-----	----- 
00:00	9.5	9.5	9.5	84	5.7	0	0	---	0.00	30.406 
00:05	9.3	9.3	9.3	84	5.5	0	0	---	0.00	30.406 
00:10	9.3	9.3	9.3	85	5.7	0	0	---	0.00	30.406 
00:15	9.3	9.3	9.3	85	5.7	0	0	---	0.00	30.402 
00:20	9.5	9.5	9.5	85	5.9	0	0	---	0.00	30.402 
00:25	9.7	9.7	9.7	85	6.1	0	0	---	0.00	30.402 
00:30	9.7	9.7	9.7	85	6.1	0	0	---	0.00	30.401 
00:35	9.7	9.7	9.7	85	6.1	0	0	---	0.00	30.401 
00:40	9.7	9.7	9.7	85	6.1	0	0	---	0.00	30.401 
00:45	9.7	9.7	9.7	85	6.1	0	0	---	0.00	30.401 
00:50	9.7	9.7	9.7	85	6.1	0	0	---	0.00	30.401 
00:55	9.7	9.7	9.7	85	6.1	0	0	---	0.00	30.401 
01:00	9.9	9.9	9.9	85	6.3	0	0	---	0.00	30.407 
01:05	9.9	9.9	9.9	85	6.3	0	0	---	0.00	30.407 
01:10	10.0	10.0	10.0	85	6.4	0	0	---	0.00	30.407 
01:15	10.0	10.0	10.0	85	6.4	0	0	---	0.00	30.405 
01:20	10.0	10.0	10.0	85	6.4	0	0	---	0.00	30.405 
01:25	10.0	10.0	10.0	85	6.4	0	0	---	0.00	30.405 
01:30	9.9	9.9	9.9	85	6.3	0	0	---	0.00	30.413 
01:35	9.9	9.9	9.9	85	6.3	0	0	---	0.00	30.413 
01:40	10.0	10.0	10.0	85	6.4	0	0	---	0.00	30.413 
01:45	10.0	10.0	10.0	86	6.7	0	0	---	0.00	30.430 
01:50	10.0	10.0	10.0	85	6.4	0	0	---	0.00	30.430 
01:55	10.0	10.0	10.0	85	6.4	0	0	---	0.00	30.430 
02:00	10.0	10.0	10.0	85	6.4	0	0	---	0.00	30.444 
02:05	10.0	10.0	10.0	85	6.4	0	0	---	0.00	30.444 
02:10	10.0	10.0	10.0	85	6.4	0	0	---	0.00	30.444 
02:15	10.0	10.0	10.0	85	6.4	0	0	---	0.00	30.446 
02:20	9.9	9.9	9.9	85	6.3	0	0	---	0.00	30.446 
02:25	9.9	9.9	9.9	85	6.3	0	0	---	0.00	30.446 
02:30	9.7	9.7	9.7	85	6.1	0	0	---	0.00	30.458 
02:35	9.7	9.7	9.7	85	6.1	0	0	---	0.00	30.458 
02:40	9.7	9.7	9.7	85	6.1	0	0	---	0.00	30.458 
02:45	9.7	9.7	9.7	85	6.1	0	0	---	0.00	30.469 
02:50	9.7	9.7	9.7	85	6.1	0	0	---	0.00	30.469 
02:55	10.0	10.0	10.0	86	6.7	0	0	---	0.00	30.469 
03:00	10.0	10.0	10.0	86	6.7	0	0	---	0.00	30.475 
03:05	10.2	10.2	10.2	86	6.9	0	0	---	0.00	30.475 
03:10	10.2	10.2	10.2	86	6.9	0	0	---	0.00	30.475 
03:15	10.2	10.2	10.2	86	6.9	0	0	---	0.00	30.479 
03:20	10.2	10.2	10.2	86	6.9	0	0	---	0.00	30.479 
03:25	10.2	10.2	10.2	86	6.9	0	0	---	0.00	30.479 
03:30	10.2	10.2	10.2	86	6.9	0	0	---	0.00	30.485 
03:35	10.2	10.2	10.2	85	6.6	0	0	---	0.00	30.485 
03:40	10.2	10.2	10.2	86	6.9	0	0	---	0.00	30.485 
03:45	10.2	10.2	10.2	85	6.6	0	0	---	0.00	30.481 
03:50	10.0	10.0	10.0	85	6.4	0	0	---	0.00	30.481 
03:55	10.0	10.0	10.0	85	6.4	0	0	---	0.00	30.481 
04:00	10.0	10.0	10.0	85	6.4	0	0	---	0.00	30.481 
04:05	10.0	10.0	10.0	85	6.4	0	0	---	0.00	30.481 
04:10	10.0	10.0	10.0	85	6.4	0	0	---	0.00	30.481 
04:15	9.9	9.9	9.9	85	6.3	0	0	---	0.00	30.483 
04:20	10.0	10.0	10.0	85	6.4	0	0	---	0.00	30.483 
04:25	10.2	10.2	10.2	85	6.6	0	0	---	0.00	30.483 
04:30	10.2	10.2	10.2	85	6.6	0	0	---	0.00	30.477 
04:35	10.4	10.4	10.4	85	6.8	0	0	---	0.00	30.477 
04:40	10.4	10.4	10.4	85	6.8	0	0	---	0.00	30.477 
04:45	10.5	10.5	10.5	86	7.2	0	0	---	0.00	30.474 
04:50	10.7	10.7	10.7	86	7.4	0	0	---	0.00	30.474 
04:55	10.9	10.9	10.9	86	7.6	0	0	---	0.00	30.474 
05:00	11.1	11.1	11.1	86	7.7	0	0	---	0.00	30.471 
05:05	11.2	11.2	11.2	86	7.8	0	0	---	0.00	30.471 
05:10	11.6	11.6	11.6	86	8.2	0	0	---	0.00	30.471 
05:15	11.7	11.7	11.7	86	8.3	0	0	---	0.00	30.466 
05:20	12.1	12.1	12.1	86	8.7	0	0	---	0.00	30.466 
05:25	12.3	12.3	12.3	86	8.9	0	0	---	0.00	30.466 
05:30	12.6	12.6	12.6	87	9.5	0	0	---	0.00	30.465 
05:35	12.8	12.8	12.8	86	9.4	0	0	---	0.00	30.465 
05:40	12.9	12.9	12.9	87	9.8	0	0	---	0.00	30.465 
05:45	13.1	13.1	13.1	87	10.0	0	0	---	0.00	30.465 
05:50	13.3	13.3	13.3	87	10.2	0	0	---	0.00	30.465 
05:55	13.6	13.6	13.6	87	10.5	0	0	---	0.00	30.465 
06:00	13.8	13.8	13.8	87	10.7	0	0	---	0.00	30.466 
06:05	14.0	14.0	14.0	87	10.9	0	0	---	0.00	30.466 
06:10	14.1	14.1	14.1	87	11.0	0	0	---	0.00	30.466 
06:15	14.3	14.3	14.3	87	11.2	0	0	---	0.00	30.471 
06:20	14.4	14.4	14.4	87	11.3	0	0	---	0.00	30.471 
06:25	14.6	14.6	14.6	87	11.4	0	0	---	0.00	30.471 
06:30	14.6	14.6	14.6	87	11.4	0	0	---	0.00	30.470 
06:35	14.8	14.8	14.8	87	11.6	0	0	---	0.00	30.470 
06:40	14.8	14.8	14.8	87	11.6	0	0	---	0.00	30.470 
06:45	14.9	14.9	14.9	87	11.7	0	0	---	0.00	30.468 
06:50	14.9	14.9	14.9	87	11.7	0	0	---	0.00	30.468 
06:55	15.1	15.1	15.1	87	11.9	0	0	---	0.00	30.468 
07:00	15.1	15.1	15.1	87	11.9	0	0	---	0.00	30.468 
07:05	15.2	15.2	15.2	87	12.0	0	0	---	0.00	30.468 
07:10	15.4	15.4	15.4	87	12.2	0	0	---	0.00	30.468 
07:15	15.4	15.4	15.4	87	12.2	0	0	---	0.00	30.475 
07:20	15.4	15.4	15.4	87	12.2	0	0	---	0.00	30.475 
07:25	15.6	15.6	15.6	87	12.4	0	0	---	0.00	30.475 
07:30	15.6	15.6	15.6	87	12.4	0	0	---	0.00	30.471 
07:35	15.7	15.7	15.7	87	12.5	0	0	---	0.00	30.471 
07:40	15.9	15.9	15.9	87	12.7	0	0	---	0.00	30.471 
07:45	16.1	16.1	16.1	87	12.9	0	0	---	0.00	30.468 
07:50	16.1	16.1	16.1	87	12.9	0	0	---	0.00	30.468 
07:55	16.2	16.2	16.2	87	13.0	0	0	---	0.00	30.468 
08:00	16.4	16.4	16.4	87	13.2	0	0	---	0.00	30.467 
08:05	16.4	16.4	16.4	87	13.2	0	0	---	0.00	30.467 
08:10	16.5	16.5	16.5	87	13.3	0	0	---	0.00	30.467 
08:15	16.5	16.5	16.5	87	13.3	0	0	---	0.00	30.469 
08:20	16.7	16.7	16.7	87	13.5	0	0	---	0.00	30.469 
08:25	16.7	16.7	16.7	87	13.5	0	0	---	0.00	30.469 
08:30	16.9	16.9	16.9	87	13.7	0	0	---	0.00	30.475 
08:35	17.0	17.0	17.0	87	13.8	0	0	---	0.00	30.475 
08:40	17.0	17.0	17.0	87	13.8	0	0	---	0.00	30.475 
08:45	17.2	17.2	17.2	87	14.0	0	0	---	0.00	30.481 
08:50	17.3	17.3	17.3	87	14.1	0	0	---	0.00	30.481 
08:55	17.5	17.5	17.5	87	14.3	0	0	---	0.00	30.481 
09:00	17.7	17.7	17.7	87	14.5	0	0	---	0.00	30.480 
09:05	17.8	17.8	17.8	86	14.3	0	1	338	0.00	30.480 
09:10	18.0	18.0	18.0	86	14.5	0	1	338	0.00	30.480 
09:15	18.1	18.1	18.1	85	14.4	0	1	338	0.00	30.482 
09:20	18.3	18.3	18.3	84	14.3	0	2	338	0.00	30.482 
09:25	18.4	18.4	18.4	84	14.4	0	2	338	0.00	30.482 
09:30	18.6	18.6	18.6	84	14.6	0	1	338	0.00	30.486 
09:35	18.9	18.9	18.9	84	14.9	0	1	338	0.00	30.486 
09:40	19.1	19.1	19.1	82	14.5	1	2	338	0.00	30.486 
09:45	19.2	19.2	19.2	81	14.3	1	4	90	0.00	30.497 
09:50	19.2	19.2	19.2	78	13.5	2	4	90	0.00	30.497 
09:55	19.4	19.4	19.4	77	13.4	2	5	90	0.00	30.497 
10:00	19.4	19.4	19.4	77	13.4	1	4	90	0.00	30.498 
10:05	19.5	19.5	19.5	77	13.5	1	4	90	0.00	30.498 
10:10	19.7	19.7	19.7	77	13.7	1	3	90	0.00	30.498 
10:15	19.9	19.9	19.9	77	13.9	1	3	90	0.00	30.499 
10:20	20.0	20.0	20.0	77	14.0	1	3	90	0.00	30.499 
10:25	20.0	20.0	20.0	76	13.7	1	4	90	0.00	30.499 
10:30	20.2	20.2	20.2	76	13.9	1	2	90	0.00	30.499 
10:35	20.5	20.5	20.5	75	13.9	1	3	90	0.00	30.499 
10:40	20.8	20.8	20.8	75	14.1	1	4	90	0.00	30.499 
10:45	21.1	21.1	21.1	75	14.4	1	5	90	0.00	30.496 
10:50	21.6	21.6	21.6	74	14.6	1	3	90	0.00	30.496 
10:55	21.9	21.9	21.9	73	14.6	2	5	90	0.00	30.496 
11:00	22.2	22.2	22.2	72	14.6	2	5	90	0.00	30.494 
11:05	22.5	22.5	22.5	72	14.9	1	3	90	0.00	30.494 
11:10	22.9	22.9	22.9	71	14.9	2	5	90	0.00	30.494 
11:15	23.2	23.2	23.2	72	15.5	1	4	90	0.00	30.491 
11:20	23.3	23.3	23.3	72	15.6	2	5	90	0.00	30.491 
11:25	23.3	23.3	23.3	72	15.6	2	5	112	0.00	30.491 
11:30	23.5	23.5	23.5	72	15.8	3	5	112	0.00	30.481 
11:35	23.5	23.5	23.5	73	16.1	2	6	112	0.00	30.481 
11:40	23.8	23.8	23.8	73	16.4	1	4	90	0.00	30.481 
11:45	23.9	23.9	23.9	73	16.5	3	7	90	0.00	30.477 
11:50	24.1	24.1	24.1	73	16.7	2	7	90	0.00	30.477 
11:55	24.4	24.4	24.4	73	17.0	3	5	90	0.00	30.477 
12:00	24.7	24.7	24.7	73	17.3	2	7	90	0.00	30.469 
12:05	24.7	24.7	24.7	73	17.3	2	5	112	0.00	30.469 
12:10	25.0	25.0	25.0	73	17.6	1	4	112	0.00	30.469 
12:15	25.1	25.1	25.1	72	17.4	1	4	112	0.00	30.465 
12:20	25.0	25.0	25.0	72	17.3	2	5	112	0.00	30.465 
12:25	25.3	25.3	25.3	72	17.6	2	5	90	0.00	30.465 
12:30	25.4	25.4	25.4	72	17.7	1	3	112	0.00	30.453 
12:35	25.7	25.7	25.7	72	17.9	0	2	112	0.00	30.453 
12:40	25.8	25.8	25.8	71	17.7	0	2	112	0.00	30.453 
12:45	26.0	26.0	26.0	71	17.9	1	5	90	0.00	30.445 
12:50	26.0	26.0	26.0	70	17.6	1	5	90	0.00	30.445 
12:55	26.0	26.0	26.0	70	17.6	2	5	90	0.00	30.445 
13:00	26.1	26.1	26.1	70	17.7	1	5	90	0.00	30.444 
13:05	26.3	26.3	26.3	70	17.9	1	4	90	0.00	30.444 
13:10	26.4	26.4	26.4	69	17.6	2	5	90	0.00	30.444 
13:15	26.4	26.4	26.4	69	17.6	2	5	90	0.00	30.431 
13:20	26.6	26.6	26.6	69	17.8	1	5	90	0.00	30.431 
13:25	26.6	26.6	26.6	69	17.8	2	6	90	0.00	30.431 
13:30	26.6	26.6	26.6	68	17.5	2	5	90	0.00	30.428 
13:35	26.7	26.7	26.7	68	17.6	2	5	112	0.00	30.428 
13:40	26.9	26.9	26.9	68	17.8	2	6	90	0.00	30.428 
13:45	26.7	26.7	26.7	66	16.9	3	7	90	0.00	30.423 
13:50	26.7	26.7	26.7	67	17.2	3	7	90	0.00	30.423 
13:55	26.9	26.9	26.9	67	17.4	3	7	90	0.00	30.423 
14:00	26.9	26.9	26.9	67	17.4	2	5	90	0.00	30.422 
14:05	27.0	27.0	27.0	66	17.2	3	5	90	0.00	30.422 
14:10	27.0	27.0	27.0	66	17.2	2	6	90	0.00	30.422 
14:15	27.0	22.3	27.0	65	16.8	4	9	90	0.00	30.416 
14:20	27.0	27.0	27.0	66	17.2	3	8	90	0.00	30.416 
14:25	27.2	27.2	27.2	65	17.0	2	5	90	0.00	30.416 
14:30	27.2	27.2	27.2	66	17.4	3	6	112	0.00	30.414 
14:35	27.0	27.0	27.0	66	17.2	2	5	90	0.00	30.414 
14:40	27.0	27.0	27.0	65	16.8	2	7	90	0.00	30.414 
14:45	26.9	26.9	26.9	65	16.7	3	6	90	0.00	30.413 
14:50	26.9	26.9	26.9	64	16.4	3	7	90	0.00	30.413 
14:55	26.9	26.9	26.9	65	16.7	2	6	90	0.00	30.413 
15:00	26.9	26.9	26.9	65	16.7	3	5	90	0.00	30.410 
15:05	27.0	27.0	27.0	65	16.8	3	7	90	0.00	30.410 
15:10	27.0	27.0	27.0	64	16.5	3	6	90	0.00	30.410 
15:15	27.2	27.2	27.2	65	17.0	2	7	90	0.00	30.406 
15:20	27.2	27.2	27.2	64	16.7	2	7	90	0.00	30.406 
15:25	27.3	27.3	27.3	65	17.1	2	5	112	0.00	30.406 
15:30	27.3	27.3	27.3	64	16.8	3	6	90	0.00	30.401 
15:35	27.3	27.3	27.3	64	16.8	3	6	90	0.00	30.401 
15:40	27.3	22.6	27.3	63	16.4	4	10	90	0.00	30.401 
15:45	27.3	27.3	27.3	64	16.8	2	5	90	0.00	30.396 
15:50	27.2	27.2	27.2	64	16.7	3	7	90	0.00	30.396 
15:55	27.0	27.0	27.0	63	16.1	3	7	90	0.00	30.396 
16:00	26.9	26.9	26.9	63	16.0	3	9	90	0.00	30.394 
16:05	26.7	22.0	26.7	63	15.8	4	10	90	0.00	30.394 
16:10	26.7	22.0	26.7	63	15.8	4	9	90	0.00	30.394 
16:15	26.6	26.6	26.6	64	16.1	3	9	90	0.00	30.393 
16:20	26.6	21.8	26.6	63	15.7	4	7	90	0.00	30.393 
16:25	26.4	26.4	26.4	63	15.5	3	7	90	0.00	30.393 
16:30	26.4	26.4	26.4	64	15.9	2	6	112	0.00	30.395 
16:35	26.3	26.3	26.3	65	16.2	2	6	90	0.00	30.395 
16:40	26.3	26.3	26.3	64	15.8	2	6	90	0.00	30.395 
16:45	26.1	26.1	26.1	64	15.6	2	7	90	0.00	30.397 
16:50	26.1	26.1	26.1	64	15.6	1	4	90	0.00	30.397 
16:55	26.0	26.0	26.0	64	15.5	1	5	90	0.00	30.397 
17:00	26.0	26.0	26.0	63	15.2	2	5	90	0.00	30.398 
17:05	25.8	25.8	25.8	64	15.3	2	4	90	0.00	30.398 
17:10	25.8	25.8	25.8	64	15.3	1	4	112	0.00	30.398 
17:15	25.7	25.7	25.7	64	15.2	2	5	90	0.00	30.394 
17:20	25.6	25.6	25.6	65	15.5	1	4	90	0.00	30.394 
17:25	25.4	25.4	25.4	65	15.3	1	3	90	0.00	30.394 
17:30	25.3	25.3	25.3	66	15.6	1	3	90	0.00	30.396 
17:35	25.1	25.1	25.1	66	15.4	2	5	90	0.00	30.396 
17:40	25.0	25.0	25.0	66	15.3	2	4	90	0.00	30.396 
17:45	24.8	24.8	24.8	66	15.1	1	3	90	0.00	30.398 
17:50	24.5	24.5	24.5	66	14.8	1	4	90	0.00	30.398 
17:55	24.2	24.2	24.2	66	14.5	1	5	90	0.00	30.398 
18:00	24.1	24.1	24.1	66	14.4	2	5	112	0.00	30.397 
18:05	23.9	23.9	23.9	66	14.2	1	4	68	0.00	30.397 
18:10	23.8	23.8	23.8	66	14.1	1	3	112	0.00	30.397 
18:15	23.6	23.6	23.6	65	13.6	1	5	90	0.00	30.396 
18:20	23.5	23.5	23.5	65	13.5	1	4	90	0.00	30.396 
18:25	23.3	23.3	23.3	66	13.6	0	3	90	0.00	30.396 
18:30	23.2	23.2	23.2	66	13.6	0	2	90	0.00	30.404 
18:35	23.0	23.0	23.0	66	13.4	0	2	90	0.00	30.404 
18:40	22.7	22.7	22.7	67	13.4	0	1	90	0.00	30.404 
18:45	22.5	22.5	22.5	67	13.2	0	3	90	0.00	30.397 
18:50	22.4	22.4	22.4	68	13.5	0	3	90	0.00	30.397 
18:55	22.4	22.4	22.4	68	13.5	0	1	90	0.00	30.397 
19:00	22.2	22.2	22.2	68	13.3	0	0	---	0.00	30.400 
19:05	21.9	21.9	21.9	69	13.3	0	0	---	0.00	30.400 
19:10	21.6	21.6	21.6	69	13.0	0	1	90	0.00	30.400 
19:15	21.4	21.4	21.4	70	13.2	0	1	90	0.00	30.397 
19:20	21.3	21.3	21.3	71	13.4	0	1	90	0.00	30.397 
19:25	21.3	21.3	21.3	72	13.7	0	2	90	0.00	30.397 
19:30	21.1	21.1	21.1	72	13.5	0	1	90	0.00	30.393 
19:35	21.1	21.1	21.1	73	13.8	0	1	90	0.00	30.393 
19:40	21.1	21.1	21.1	73	13.8	0	2	90	0.00	30.393 
19:45	21.1	21.1	21.1	73	13.8	0	1	90	0.00	30.385 
19:50	21.1	21.1	21.1	73	13.8	0	2	90	0.00	30.385 
19:55	21.1	21.1	21.1	73	13.8	0	2	90	0.00	30.385 
20:00	21.1	21.1	21.1	73	13.8	0	2	90	0.00	30.389 
20:05	21.1	21.1	21.1	73	13.8	0	2	90	0.00	30.389 
20:10	21.0	21.0	21.0	73	13.7	0	1	90	0.00	30.389 
20:15	20.8	20.8	20.8	74	13.8	0	0	---	0.00	30.384 
20:20	20.6	20.6	20.6	74	13.7	0	1	90	0.00	30.384 
20:25	20.5	20.5	20.5	74	13.6	0	1	90	0.00	30.384 
20:30	20.5	20.5	20.5	75	13.9	0	1	90	0.00	30.379 
20:35	20.3	20.3	20.3	75	13.7	0	0	---	0.00	30.379 
20:40	20.3	20.3	20.3	75	13.7	0	2	90	0.00	30.379 
20:45	20.3	20.3	20.3	75	13.7	0	3	90	0.00	30.378 
20:50	20.5	20.5	20.5	75	13.9	0	1	90	0.00	30.378 
20:55	20.5	20.5	20.5	75	13.9	0	2	90	0.00	30.378 
21:00	20.5	20.5	20.5	75	13.9	0	2	90	0.00	30.371 
21:05	20.6	20.6	20.6	74	13.7	0	3	90	0.00	30.371 
21:10	20.6	20.6	20.6	74	13.7	1	3	90	0.00	30.371 
21:15	20.8	20.8	20.8	74	13.8	1	4	90	0.00	30.363 
21:20	21.0	21.0	21.0	74	14.0	1	3	112	0.00	30.363 
21:25	21.0	21.0	21.0	74	14.0	1	4	112	0.00	30.363 
21:30	21.0	21.0	21.0	74	14.0	0	1	112	0.00	30.360 
21:35	21.0	21.0	21.0	74	14.0	0	2	112	0.00	30.360 
21:40	21.0	21.0	21.0	74	14.0	0	1	112	0.00	30.360 
21:45	21.0	21.0	21.0	74	14.0	0	2	112	0.00	30.360 
21:50	21.1	21.1	21.1	74	14.1	0	2	112	0.00	30.360 
21:55	21.1	21.1	21.1	75	14.4	0	3	112	0.00	30.360 
22:00	21.1	21.1	21.1	75	14.4	1	2	112	0.00	30.352 
22:05	21.3	21.3	21.3	75	14.6	1	3	112	0.00	30.352 
22:10	21.3	21.3	21.3	75	14.6	1	4	112	0.00	30.352 
22:15	21.4	21.4	21.4	75	14.7	1	3	68	0.00	30.350 
22:20	21.4	21.4	21.4	75	14.7	1	5	90	0.00	30.350 
22:25	21.6	21.6	21.6	75	14.9	1	4	90	0.00	30.350 
22:30	21.6	21.6	21.6	75	14.9	2	5	90	0.00	30.351 
22:35	21.6	21.6	21.6	75	14.9	0	2	90	0.00	30.351 
22:40	21.6	21.6	21.6	75	14.9	1	5	90	0.00	30.351 
22:45	21.6	21.6	21.6	75	14.9	2	4	112	0.00	30.344 
22:50	21.6	21.6	21.6	75	14.9	2	5	90	0.00	30.344 
22:55	21.6	21.6	21.6	76	15.2	1	4	90	0.00	30.344 
23:00	21.4	21.4	21.4	76	15.0	2	4	90	0.00	30.349 
23:05	21.4	21.4	21.4	76	15.0	1	4	112	0.00	30.349 
23:10	21.4	21.4	21.4	77	15.3	1	4	90	0.00	30.349 
23:15	21.3	21.3	21.3	77	15.2	1	5	90	0.00	30.344 
23:20	21.3	21.3	21.3	77	15.2	2	5	90	0.00	30.344 
23:25	21.3	21.3	21.3	77	15.2	2	4	112	0.00	30.344 
23:30	21.1	21.1	21.1	77	15.0	2	7	90	0.00	30.339 
23:35	21.1	21.1	21.1	77	15.0	2	5	112	0.00	30.339 
23:40	21.1	21.1	21.1	77	15.0	1	4	90	0.00	30.339 
23:45	21.1	21.1	21.1	78	15.3	1	4	90	0.00	30.331 
23:50	21.1	21.1	21.1	78	15.3	1	4	90	0.00	30.331 
23:55	21.1	21.1	21.1	78	15.3	2	4	90	0.00	30.331 

CoCoRaHS
IN-AL-39
A2 Web Hosting
Creative Commons License
GoDaddy
search engine by freefind advanced

loaded 2018-11-17 22:53:49 • last modified 2010-11-18 10:43:29
Privacy PolicyDisclaimer
• wx.awcolley.com is powered by PmWiki v.2002016 •
• all content (unless otherwise noted) © 2018 A W Colley